createdAt,value
2023-04-16T00:00:46.291Z,7.88
2023-04-16T00:02:09.066Z,7.78
2023-04-16T00:03:31.263Z,7.85
2023-04-16T00:04:55.615Z,8.52
2023-04-16T00:06:18.324Z,9.43
2023-04-16T00:07:41.982Z,8.75
2023-04-16T00:09:04.969Z,7.20
2023-04-16T00:10:27.410Z,8.32
2023-04-16T00:11:50.408Z,7.75
2023-04-16T00:13:13.967Z,7.80
2023-04-16T00:14:36.131Z,8.90
2023-04-16T00:15:59.055Z,7.93
2023-04-16T00:17:21.098Z,9.27
2023-04-16T00:18:43.800Z,9.20
2023-04-16T00:20:09.473Z,8.27
2023-04-16T00:21:32.214Z,8.32
2023-04-16T00:22:53.854Z,8.05
2023-04-16T00:24:16.567Z,10.23
2023-04-16T00:25:39.725Z,8.55
2023-04-16T00:27:03.865Z,8.55
2023-04-16T00:28:26.096Z,9.02
2023-04-16T00:29:49.063Z,8.75
2023-04-16T00:31:11.242Z,8.55
2023-04-16T00:32:34.992Z,8.73
2023-04-16T00:33:57.098Z,8.45
2023-04-16T00:35:20.319Z,8.95
2023-04-16T00:36:43.151Z,11.38
2023-04-16T00:38:06.768Z,8.98
2023-04-16T00:39:28.306Z,9.32
2023-04-16T00:40:51.387Z,9.93
2023-04-16T00:42:15.641Z,10.25
2023-04-16T00:43:38.991Z,9.77
2023-04-16T00:45:01.633Z,9.57
2023-04-16T00:46:24.941Z,11.13
2023-04-16T00:47:47.941Z,9.75
2023-04-16T00:49:20.916Z,10.25
2023-04-16T00:50:43.936Z,8.82
2023-04-16T00:52:07.063Z,9.23
2023-04-16T00:53:29.293Z,9.52
2023-04-16T00:54:52.108Z,10.80
2023-04-16T00:56:17.692Z,9.90
2023-04-16T00:57:42.012Z,10.20
2023-04-16T00:59:07.517Z,9.63
2023-04-16T01:00:30.793Z,10.63
2023-04-16T01:01:54.511Z,9.75
2023-04-16T01:03:17.856Z,10.45
2023-04-16T01:04:40.474Z,9.95
2023-04-16T01:06:03.820Z,9.88
2023-04-16T01:07:26.597Z,10.93
2023-04-16T01:08:49.738Z,11.25
2023-04-16T01:10:11.585Z,11.60
2023-04-16T01:11:34.781Z,10.25
2023-04-16T01:12:58.820Z,9.30
2023-04-16T01:14:22.000Z,10.15
2023-04-16T01:15:44.589Z,9.50
2023-04-16T01:17:07.077Z,9.70
2023-04-16T01:18:29.402Z,9.48
2023-04-16T01:19:51.854Z,10.48
2023-04-16T01:21:15.245Z,11.50
2023-04-16T01:22:38.615Z,11.77
2023-04-16T01:24:03.615Z,12.80
2023-04-16T01:25:25.957Z,11.23
2023-04-16T01:26:49.494Z,12.90
2023-04-16T01:28:12.466Z,12.90
2023-04-16T01:29:35.878Z,12.43
2023-04-16T01:30:57.730Z,11.05
2023-04-16T01:32:21.109Z,11.55
2023-04-16T01:33:42.912Z,11.20
2023-04-16T01:35:06.170Z,11.15
2023-04-16T01:36:32.021Z,12.57
2023-04-16T01:37:53.940Z,14.77
2023-04-16T01:39:19.368Z,12.98
2023-04-16T01:40:41.208Z,12.15
2023-04-16T01:42:04.004Z,12.55
2023-04-16T01:43:26.094Z,11.80
2023-04-16T01:44:49.217Z,11.80
2023-04-16T01:46:21.322Z,13.90
2023-04-16T01:47:44.810Z,13.27
2023-04-16T01:49:07.742Z,13.48
2023-04-16T01:50:29.970Z,12.63
2023-04-16T01:51:53.750Z,12.13
2023-04-16T01:53:15.952Z,13.32
2023-04-16T01:54:38.927Z,16.10
2023-04-16T01:56:01.092Z,14.93
2023-04-16T01:57:24.074Z,14.52
2023-04-16T01:58:47.163Z,15.25
2023-04-16T02:00:11.758Z,17.10
2023-04-16T02:01:34.573Z,16.08
2023-04-16T02:02:56.584Z,18.55
2023-04-16T02:04:19.447Z,17.42
2023-04-16T02:05:42.158Z,14.00
2023-04-16T02:07:07.383Z,14.00
2023-04-16T02:08:30.389Z,13.70
2023-04-16T02:09:52.742Z,14.20
2023-04-16T02:11:15.878Z,14.40
2023-04-16T02:12:38.119Z,18.23
2023-04-16T02:14:00.904Z,16.15
2023-04-16T02:15:23.920Z,16.98
2023-04-16T02:16:47.546Z,18.42
2023-04-16T02:18:09.231Z,15.88
2023-04-16T02:19:32.058Z,16.35
2023-04-16T02:20:54.354Z,19.25
2023-04-16T02:22:18.833Z,18.85
2023-04-16T02:23:42.161Z,18.55
2023-04-16T02:25:05.001Z,17.17
2023-04-16T02:26:29.118Z,17.02
2023-04-16T02:27:51.189Z,17.35
2023-04-16T02:29:14.854Z,17.45
2023-04-16T02:30:37.171Z,16.23
2023-04-16T02:32:00.560Z,18.77
2023-04-16T02:33:26.160Z,16.85
2023-04-16T02:34:48.781Z,16.73
2023-04-16T02:36:11.245Z,17.48
2023-04-16T02:37:36.687Z,17.13
2023-04-16T02:38:59.718Z,18.98
2023-04-16T02:40:22.283Z,17.55
2023-04-16T02:41:45.269Z,16.80
2023-04-16T02:43:09.244Z,17.15
2023-04-16T02:44:31.804Z,15.73
2023-04-16T02:45:53.596Z,17.70
2023-04-16T02:47:17.419Z,17.50
2023-04-16T02:48:41.061Z,16.33
2023-04-16T02:50:03.786Z,17.15
2023-04-16T02:51:27.740Z,15.88
2023-04-16T02:52:52.342Z,18.73
2023-04-16T02:54:15.710Z,15.38
2023-04-16T02:55:38.828Z,17.63
2023-04-16T02:57:02.336Z,18.38
2023-04-16T02:58:29.402Z,17.42
2023-04-16T02:59:51.949Z,16.52
2023-04-16T03:01:15.142Z,16.83
2023-04-16T03:02:38.048Z,19.23
2023-04-16T03:04:00.048Z,18.05
2023-04-16T03:05:23.018Z,17.45
2023-04-16T03:06:46.284Z,16.33
2023-04-16T03:08:14.399Z,16.50
2023-04-16T03:09:35.520Z,16.80
2023-04-16T03:10:55.701Z,17.13
2023-04-16T03:12:13.868Z,16.33
2023-04-16T03:13:34.236Z,17.10
2023-04-16T03:14:55.498Z,15.07
2023-04-16T03:16:15.901Z,15.73
2023-04-16T03:17:37.004Z,17.40
2023-04-16T03:18:57.193Z,16.45
2023-04-16T03:20:19.149Z,18.00
2023-04-16T03:21:39.269Z,17.00
2023-04-16T03:23:00.668Z,15.18
2023-04-16T03:24:23.238Z,17.25
2023-04-16T03:25:46.714Z,14.60
2023-04-16T03:27:07.072Z,15.27
2023-04-16T03:28:31.322Z,15.70
2023-04-16T03:29:51.218Z,18.70
2023-04-16T03:31:12.415Z,17.90
2023-04-16T03:32:33.765Z,18.33
2023-04-16T03:33:54.153Z,18.02
2023-04-16T03:35:15.855Z,16.67
2023-04-16T03:36:36.697Z,19.80
2023-04-16T03:39:18.551Z,17.33
2023-04-16T03:40:41.383Z,15.82
2023-04-16T03:42:03.467Z,18.23
2023-04-16T03:43:23.733Z,17.40
2023-04-16T03:44:44.952Z,17.23
2023-04-16T03:46:06.394Z,16.67
2023-04-16T03:47:27.651Z,14.82
2023-04-16T03:48:48.852Z,20.85
2023-04-16T03:50:09.847Z,16.02
2023-04-16T03:51:30.912Z,18.95
2023-04-16T03:52:51.354Z,19.40
2023-04-16T03:54:12.708Z,17.65
2023-04-16T03:55:33.115Z,20.23
2023-04-16T03:56:57.051Z,20.00
2023-04-16T03:58:17.023Z,24.58
2023-04-16T03:59:38.487Z,25.48
2023-04-16T04:00:58.857Z,23.08
2023-04-16T04:02:17.704Z,20.95
2023-04-16T04:03:38.157Z,22.73
2023-04-16T04:04:59.780Z,17.25
2023-04-16T04:06:19.936Z,21.95
2023-04-16T04:07:41.242Z,24.60
2023-04-16T04:09:02.758Z,24.10
2023-04-16T04:10:23.126Z,25.65
2023-04-16T04:11:44.351Z,23.58
2023-04-16T04:13:06.438Z,22.05
2023-04-16T04:14:27.489Z,25.33
2023-04-16T04:17:09.825Z,21.90
2023-04-16T04:18:31.088Z,22.92
2023-04-16T04:21:22.212Z,20.77
2023-04-16T04:22:41.278Z,23.40
2023-04-16T04:24:02.344Z,23.13
2023-04-16T04:25:22.741Z,21.40
2023-04-16T04:26:43.864Z,22.77
2023-04-16T04:28:06.838Z,22.95
2023-04-16T04:29:26.708Z,21.20
2023-04-16T04:30:47.866Z,22.30
2023-04-16T04:33:29.671Z,18.77
2023-04-16T04:34:49.743Z,19.35
2023-04-16T04:36:10.946Z,21.30
2023-04-16T04:37:30.993Z,25.10
2023-04-16T04:38:52.370Z,22.60
2023-04-16T04:40:13.411Z,19.80
2023-04-16T04:41:33.888Z,19.67
2023-04-16T04:42:55.415Z,20.98
2023-04-16T04:44:17.093Z,18.98
2023-04-16T04:45:38.423Z,20.02
2023-04-16T04:46:58.704Z,18.67
2023-04-16T04:48:21.589Z,19.73
2023-04-16T04:49:42.786Z,19.02
2023-04-16T04:51:05.299Z,16.85
2023-04-16T04:52:25.819Z,19.15
2023-04-16T04:53:46.839Z,20.52
2023-04-16T04:56:27.030Z,18.85
2023-04-16T04:57:48.001Z,18.05
2023-04-16T05:00:31.059Z,16.73
2023-04-16T05:01:52.223Z,20.38
2023-04-16T05:03:12.586Z,17.20
2023-04-16T05:04:34.176Z,19.35
2023-04-16T05:05:55.548Z,15.18
2023-04-16T05:07:16.479Z,14.32
2023-04-16T05:11:19.076Z,15.77
2023-04-16T05:14:01.222Z,9.93
2023-04-16T05:15:21.551Z,13.73
2023-04-16T05:16:43.929Z,14.10
2023-04-16T05:18:05.161Z,11.55
2023-04-16T05:19:25.545Z,10.88
2023-04-16T05:20:46.780Z,11.68
2023-04-16T05:22:04.695Z,13.65
2023-04-16T05:23:26.050Z,10.93
2023-04-16T05:26:08.285Z,6.95
2023-04-16T05:28:49.219Z,10.05
2023-04-16T05:30:11.258Z,10.00
2023-04-16T05:31:31.650Z,9.73
2023-04-16T05:32:54.217Z,12.38
2023-04-16T05:34:15.503Z,10.23
2023-04-16T05:36:56.350Z,7.22
2023-04-16T05:38:17.433Z,9.67
2023-04-16T05:39:39.006Z,10.15
2023-04-16T05:40:59.337Z,9.85
2023-04-16T05:42:20.530Z,9.95
2023-04-16T05:43:40.804Z,10.95
2023-04-16T05:45:04.244Z,10.00
2023-04-16T05:46:24.676Z,9.65
2023-04-16T05:47:46.213Z,10.70
2023-04-16T05:49:09.127Z,11.15
2023-04-16T05:50:29.447Z,10.32
2023-04-16T05:51:51.015Z,12.45
2023-04-16T05:53:13.963Z,10.60
2023-04-16T05:54:34.938Z,11.32
2023-04-16T05:55:55.418Z,13.70
2023-04-16T05:57:16.572Z,12.80
2023-04-16T05:58:37.994Z,11.00
2023-04-16T06:01:20.293Z,10.70
2023-04-16T06:02:41.883Z,11.23
2023-04-16T06:04:02.376Z,12.27
2023-04-16T06:05:26.635Z,8.63
2023-04-16T06:06:47.666Z,11.70
2023-04-16T06:08:08.900Z,11.43
2023-04-16T06:09:30.850Z,12.10
2023-04-16T06:10:52.079Z,12.90
2023-04-16T06:12:13.334Z,12.45
2023-04-16T06:13:34.619Z,12.80
2023-04-16T06:14:54.796Z,9.73
2023-04-16T06:16:15.787Z,12.82
2023-04-16T06:17:37.015Z,13.70
2023-04-16T06:18:57.351Z,14.05
2023-04-16T06:20:18.828Z,15.13
2023-04-16T06:21:40.698Z,14.73
2023-04-16T06:23:01.836Z,14.52
2023-04-16T06:24:23.299Z,15.65
2023-04-16T06:25:43.483Z,14.38
2023-04-16T06:27:02.867Z,14.70
2023-04-16T06:29:44.401Z,15.25
2023-04-16T06:31:05.933Z,11.95
2023-04-16T06:32:27.017Z,15.48
2023-04-16T06:33:48.289Z,15.45
2023-04-16T06:35:09.999Z,15.68
2023-04-16T06:36:29.045Z,16.55
2023-04-16T06:37:51.196Z,16.60
2023-04-16T06:39:11.365Z,15.88
2023-04-16T06:40:32.799Z,11.93
2023-04-16T06:41:54.300Z,20.02
2023-04-16T06:43:15.696Z,16.23
2023-04-16T06:44:36.309Z,17.52
2023-04-16T06:45:57.209Z,18.85
2023-04-16T06:47:17.008Z,20.77
2023-04-16T06:48:38.190Z,17.75
2023-04-16T06:49:58.666Z,18.67
2023-04-16T06:51:20.610Z,17.15
2023-04-16T06:52:40.768Z,19.35
2023-04-16T06:54:03.220Z,17.20
2023-04-16T06:55:23.461Z,16.33
2023-04-16T06:56:44.793Z,18.77
2023-04-16T06:58:04.991Z,18.00
2023-04-16T06:59:26.130Z,16.85
2023-04-16T07:00:47.370Z,14.57
2023-04-16T07:03:27.605Z,16.15
2023-04-16T07:04:48.656Z,16.20
2023-04-16T07:06:10.424Z,15.90
2023-04-16T07:07:32.110Z,17.20
2023-04-16T07:08:53.221Z,16.02
2023-04-16T07:11:36.777Z,16.20
2023-04-16T07:12:57.353Z,15.55
2023-04-16T07:14:18.679Z,12.70
2023-04-16T07:15:39.775Z,19.10
2023-04-16T07:18:22.030Z,13.80
2023-04-16T07:21:04.217Z,14.10
2023-04-16T07:22:24.325Z,18.88
2023-04-16T07:23:45.505Z,19.02
2023-04-16T07:26:27.995Z,14.02
2023-04-16T07:27:49.315Z,15.20
2023-04-16T07:29:10.497Z,14.45
2023-04-16T07:30:34.264Z,15.95
2023-04-16T07:31:55.516Z,16.05
2023-04-16T07:33:16.516Z,17.63
2023-04-16T07:34:37.435Z,15.07
2023-04-16T07:35:58.573Z,14.20
2023-04-16T07:37:19.938Z,15.15
2023-04-16T07:38:41.269Z,17.00
2023-04-16T07:40:02.608Z,17.23
2023-04-16T07:42:45.849Z,17.23
2023-04-16T07:44:06.004Z,18.60
2023-04-16T07:45:27.365Z,18.17
2023-04-16T07:46:48.820Z,17.13
2023-04-16T07:48:09.808Z,18.63
2023-04-16T07:50:52.111Z,17.50
2023-04-16T07:52:13.696Z,18.00
2023-04-16T07:53:34.754Z,19.30
2023-04-16T07:56:17.063Z,13.73
2023-04-16T07:57:38.387Z,21.10
2023-04-16T08:00:41.471Z,18.58
2023-04-16T08:02:02.655Z,20.40
2023-04-16T08:03:24.584Z,21.73
2023-04-16T08:04:46.140Z,21.90
2023-04-16T08:06:06.690Z,21.67
2023-04-16T08:07:27.796Z,23.48
2023-04-16T08:08:49.142Z,21.75
2023-04-16T08:10:09.204Z,21.85
2023-04-16T08:11:30.185Z,20.38
2023-04-16T08:12:51.574Z,20.92
2023-04-16T08:15:34.217Z,18.10
2023-04-16T08:16:55.857Z,19.02
2023-04-16T08:18:16.909Z,19.75
2023-04-16T08:19:38.292Z,20.00
2023-04-16T08:20:59.484Z,18.45
2023-04-16T08:23:41.896Z,14.18
2023-04-16T08:25:04.124Z,18.40
2023-04-16T08:26:25.418Z,19.48
2023-04-16T08:27:46.220Z,19.20
2023-04-16T08:29:06.099Z,16.23
2023-04-16T08:30:29.367Z,14.00
2023-04-16T08:31:50.703Z,18.73
2023-04-16T08:34:13.577Z,18.33
2023-04-16T08:35:16.103Z,19.73
2023-04-16T08:36:17.562Z,18.35
2023-04-16T08:37:19.977Z,19.17
2023-04-16T08:38:22.460Z,22.83
2023-04-16T08:39:24.205Z,18.92
2023-04-16T08:40:28.323Z,20.58
2023-04-16T08:41:31.128Z,21.27
2023-04-16T08:42:45.831Z,18.92
2023-04-16T08:43:50.472Z,19.75
2023-04-16T08:45:05.059Z,19.92
2023-04-16T08:46:08.882Z,18.55
2023-04-16T08:47:13.696Z,18.42
2023-04-16T08:48:15.618Z,18.77
2023-04-16T08:49:19.036Z,18.13
2023-04-16T08:50:23.642Z,20.55
2023-04-16T08:51:28.408Z,19.27
2023-04-16T08:52:31.321Z,20.20
2023-04-16T08:53:38.009Z,19.80
2023-04-16T08:54:46.393Z,21.50
2023-04-16T08:56:04.618Z,17.98
2023-04-16T08:57:07.614Z,17.15
2023-04-16T08:58:15.454Z,17.95
2023-04-16T08:59:17.607Z,17.17
2023-04-16T09:00:20.821Z,18.67
2023-04-16T09:01:25.544Z,18.15
2023-04-16T09:02:28.494Z,16.98
2023-04-16T09:03:34.811Z,18.60
2023-04-16T09:04:40.773Z,18.98
2023-04-16T09:05:44.819Z,15.80
2023-04-16T09:06:48.424Z,16.52
2023-04-16T09:07:51.617Z,18.40
2023-04-16T09:08:53.903Z,18.17
2023-04-16T09:09:58.874Z,18.58
2023-04-16T09:11:01.319Z,16.77
2023-04-16T09:12:03.358Z,16.42
2023-04-16T09:13:05.810Z,18.90
2023-04-16T09:14:09.810Z,18.63
2023-04-16T09:15:14.126Z,17.38
2023-04-16T09:16:15.806Z,18.23
2023-04-16T09:17:20.351Z,17.27
2023-04-16T09:18:23.230Z,18.50
2023-04-16T09:19:24.717Z,18.40
2023-04-16T09:20:27.136Z,19.10
2023-04-16T09:21:30.941Z,19.83
2023-04-16T09:22:33.439Z,18.83
2023-04-16T09:23:36.401Z,17.77
2023-04-16T09:24:38.458Z,17.27
2023-04-16T09:25:40.911Z,17.00
2023-04-16T09:26:43.383Z,18.25
2023-04-16T09:27:46.745Z,17.55
2023-04-16T09:28:50.745Z,19.23
2023-04-16T09:29:53.368Z,16.00
2023-04-16T09:31:08.191Z,15.35
2023-04-16T09:32:12.036Z,14.90
2023-04-16T09:33:22.122Z,13.88
2023-04-16T09:34:24.685Z,14.07
2023-04-16T09:35:26.406Z,14.70
2023-04-16T09:36:29.390Z,14.43
2023-04-16T09:37:31.461Z,13.85
2023-04-16T09:38:47.838Z,14.63
2023-04-16T09:39:54.278Z,13.15
2023-04-16T09:41:07.247Z,15.10
2023-04-16T09:42:09.902Z,12.13
2023-04-16T09:43:12.324Z,13.60
2023-04-16T09:44:14.866Z,12.88
2023-04-16T09:45:17.359Z,14.95
2023-04-16T09:46:18.902Z,13.05
2023-04-16T09:47:21.947Z,14.10
2023-04-16T09:48:31.801Z,12.40
2023-04-16T09:49:35.997Z,13.73
2023-04-16T09:50:38.803Z,12.27
2023-04-16T09:51:41.887Z,12.35
2023-04-16T09:52:45.847Z,12.95
2023-04-16T09:53:47.365Z,12.98
2023-04-16T09:54:51.340Z,13.30
2023-04-16T09:55:52.856Z,13.88
2023-04-16T09:56:58.069Z,13.60
2023-04-16T09:58:00.370Z,12.45
2023-04-16T09:59:03.056Z,13.23
2023-04-16T10:00:07.767Z,14.27
2023-04-16T10:01:12.560Z,13.20
2023-04-16T10:02:15.852Z,12.52
2023-04-16T10:03:19.005Z,11.80
2023-04-16T10:04:22.964Z,12.52
2023-04-16T10:05:26.308Z,11.15
2023-04-16T10:06:30.197Z,11.40
2023-04-16T10:07:34.684Z,11.15
2023-04-16T10:08:37.177Z,11.38
2023-04-16T10:09:39.260Z,14.13
2023-04-16T10:10:42.538Z,11.85
2023-04-16T10:11:44.101Z,11.05
2023-04-16T10:12:46.535Z,11.70
2023-04-16T10:13:48.088Z,13.02
2023-04-16T10:14:50.781Z,11.68
2023-04-16T10:15:52.590Z,11.25
2023-04-16T10:16:57.097Z,11.40
2023-04-16T10:18:00.282Z,12.25
2023-04-16T10:19:03.083Z,10.93
2023-04-16T10:20:07.781Z,10.73
2023-04-16T10:21:11.889Z,12.30
2023-04-16T10:22:13.759Z,11.07
2023-04-16T10:23:16.425Z,10.55
2023-04-16T10:24:18.446Z,10.75
2023-04-16T10:25:21.569Z,12.77
2023-04-16T10:26:24.317Z,10.98
2023-04-16T10:27:28.068Z,11.52
2023-04-16T10:28:30.568Z,11.90
2023-04-16T10:29:34.535Z,11.82
2023-04-16T10:30:36.778Z,10.82
2023-04-16T10:31:40.483Z,11.65
2023-04-16T10:32:42.547Z,11.93
2023-04-16T10:33:46.281Z,11.50
2023-04-16T10:34:48.004Z,11.63
2023-04-16T10:36:04.972Z,11.20
2023-04-16T10:37:10.015Z,12.73
2023-04-16T10:38:26.199Z,11.57
2023-04-16T10:39:32.890Z,12.43
2023-04-16T10:40:35.461Z,12.93
2023-04-16T10:41:38.860Z,11.60
2023-04-16T10:42:40.393Z,13.80
2023-04-16T10:43:45.292Z,11.30
2023-04-16T10:44:47.760Z,11.23
2023-04-16T10:45:49.353Z,13.80
2023-04-16T10:46:51.838Z,10.90
2023-04-16T10:47:56.091Z,11.25
2023-04-16T10:49:02.222Z,12.20
2023-04-16T10:50:17.010Z,14.00
2023-04-16T10:51:31.452Z,12.27
2023-04-16T10:52:33.160Z,12.82
2023-04-16T10:53:38.106Z,12.68
2023-04-16T10:54:41.282Z,12.73
2023-04-16T10:55:56.695Z,12.68
2023-04-16T10:57:02.230Z,13.20
2023-04-16T10:58:26.977Z,13.18
2023-04-16T10:59:32.171Z,11.48
2023-04-16T11:00:49.268Z,12.90
2023-04-16T11:01:53.905Z,13.68
2023-04-16T11:02:55.682Z,13.77
2023-04-16T11:04:00.136Z,13.43
2023-04-16T11:05:03.072Z,14.38
2023-04-16T11:06:12.303Z,12.48
2023-04-16T11:07:21.054Z,12.90
2023-04-16T11:08:24.237Z,12.85
2023-04-16T11:09:48.197Z,13.98
2023-04-16T11:10:50.650Z,14.82
2023-04-16T11:11:52.442Z,14.35
2023-04-16T11:12:56.109Z,13.82
2023-04-16T11:13:57.626Z,14.27
2023-04-16T11:15:01.750Z,14.45
2023-04-16T11:16:03.787Z,12.65
2023-04-16T11:17:06.266Z,13.93
2023-04-16T11:18:09.739Z,13.15
2023-04-16T11:19:17.498Z,15.68
2023-04-16T11:20:21.887Z,13.82
2023-04-16T11:21:24.034Z,13.18
2023-04-16T11:22:28.357Z,15.18
2023-04-16T11:23:29.906Z,12.75
2023-04-16T11:24:32.937Z,13.63
2023-04-16T11:25:34.870Z,13.35
2023-04-16T11:26:37.356Z,13.48
2023-04-16T11:27:38.954Z,13.27
2023-04-16T11:28:41.449Z,13.35
2023-04-16T11:29:57.067Z,13.30
2023-04-16T11:30:59.828Z,14.98
2023-04-16T11:32:01.474Z,14.00
2023-04-16T11:33:07.014Z,15.05
2023-04-16T11:34:08.610Z,14.80
2023-04-16T11:35:15.198Z,15.50
2023-04-16T11:36:16.749Z,14.38
2023-04-16T11:37:21.839Z,14.40
2023-04-16T11:38:35.412Z,15.07
2023-04-16T11:39:49.126Z,15.70
2023-04-16T11:40:51.486Z,14.60
2023-04-16T11:41:53.960Z,16.38
2023-04-16T11:42:55.692Z,14.25
2023-04-16T11:43:58.330Z,15.27
2023-04-16T11:45:01.473Z,15.63
2023-04-16T11:46:12.933Z,14.65
2023-04-16T11:47:19.169Z,14.93
2023-04-16T11:48:21.966Z,17.70
2023-04-16T11:49:31.470Z,15.70
2023-04-16T11:50:33.944Z,15.15
2023-04-16T11:51:40.092Z,19.23
2023-04-16T11:52:52.804Z,16.23
2023-04-16T11:53:58.652Z,19.52
2023-04-16T11:55:00.388Z,17.15
2023-04-16T11:56:05.025Z,16.70
2023-04-16T11:57:07.566Z,18.58
2023-04-16T11:58:12.399Z,18.23
2023-04-16T11:59:18.715Z,19.08
2023-04-16T12:00:23.958Z,18.77
2023-04-16T12:01:27.856Z,17.35
2023-04-16T12:02:38.005Z,17.63
2023-04-16T12:03:45.043Z,18.45
2023-04-16T12:04:47.794Z,17.63
2023-04-16T12:05:49.521Z,17.27
2023-04-16T12:07:21.929Z,18.40
2023-04-16T12:08:30.677Z,19.95
2023-04-16T12:09:36.479Z,18.52
2023-04-16T12:10:54.887Z,19.05
2023-04-16T12:11:56.539Z,18.60
2023-04-16T12:13:12.395Z,17.90
2023-04-16T12:14:14.225Z,19.67
2023-04-16T12:15:16.690Z,18.13
2023-04-16T12:16:20.638Z,18.35
2023-04-16T12:17:23.277Z,16.65
2023-04-16T12:18:26.837Z,18.83
2023-04-16T12:19:29.526Z,17.38
2023-04-16T12:20:39.482Z,17.58
2023-04-16T12:21:47.484Z,16.63
2023-04-16T12:22:50.723Z,15.98
2023-04-16T12:23:53.725Z,16.90
2023-04-16T12:25:03.673Z,15.77
2023-04-16T12:26:10.804Z,15.10
2023-04-16T12:27:13.565Z,16.02
2023-04-16T12:28:16.505Z,16.50
2023-04-16T12:29:20.497Z,15.80
2023-04-16T12:30:27.167Z,15.82
2023-04-16T12:31:37.212Z,15.57
2023-04-16T12:32:39.982Z,16.05
2023-04-16T12:33:42.886Z,17.63
2023-04-16T12:34:52.311Z,16.48
2023-04-16T12:35:56.903Z,17.02
2023-04-16T12:37:09.463Z,16.77
2023-04-16T12:38:11.910Z,14.98
2023-04-16T12:39:16.126Z,18.65
2023-04-16T12:40:18.977Z,16.00
2023-04-16T12:41:21.917Z,18.10
2023-04-16T12:42:23.518Z,18.05
2023-04-16T12:43:26.516Z,19.15
2023-04-16T12:44:29.451Z,17.83
2023-04-16T12:45:31.201Z,19.35
2023-04-16T12:46:33.846Z,16.77
2023-04-16T12:47:36.435Z,17.25
2023-04-16T12:48:37.972Z,16.73
2023-04-16T12:49:40.753Z,17.65
2023-04-16T12:50:44.487Z,17.55
2023-04-16T12:51:47.887Z,19.55
2023-04-16T12:52:49.560Z,17.70
2023-04-16T12:53:52.036Z,19.45
2023-04-16T12:54:53.642Z,17.95
2023-04-16T12:56:03.623Z,19.77
2023-04-16T12:57:05.197Z,23.42
2023-04-16T12:58:08.947Z,19.67
2023-04-16T12:59:12.035Z,20.23
2023-04-16T13:00:16.211Z,18.75
2023-04-16T13:01:18.838Z,19.40
2023-04-16T13:02:21.423Z,19.15
2023-04-16T13:03:23.184Z,21.58
2023-04-16T13:04:26.162Z,20.50
2023-04-16T13:05:27.994Z,22.60
2023-04-16T13:06:31.425Z,23.35
2023-04-16T13:07:36.180Z,24.83
2023-04-16T13:08:38.820Z,24.85
2023-04-16T13:09:41.427Z,23.83
2023-04-16T13:10:42.986Z,28.63
2023-04-16T13:11:50.056Z,24.30
2023-04-16T13:12:51.590Z,24.67
2023-04-16T13:13:54.061Z,25.38
2023-04-16T13:14:56.041Z,26.63
2023-04-16T13:15:58.690Z,23.80
2023-04-16T13:17:00.414Z,26.80
2023-04-16T13:18:03.534Z,22.90
2023-04-16T13:19:06.086Z,25.70
2023-04-16T13:20:09.014Z,25.60
2023-04-16T13:21:12.371Z,20.85
2023-04-16T13:22:14.101Z,23.08
2023-04-16T13:23:16.557Z,24.77
2023-04-16T13:24:19.205Z,23.83
2023-04-16T13:25:20.766Z,30.48
2023-04-16T13:26:32.367Z,26.00
2023-04-16T13:27:35.457Z,26.85
2023-04-16T13:28:37.922Z,27.77
2023-04-16T13:29:39.413Z,27.52
2023-04-16T13:30:42.007Z,33.83
2023-04-16T13:31:46.517Z,33.40
2023-04-16T13:32:49.192Z,30.77
2023-04-16T13:33:51.973Z,29.35
2023-04-16T13:34:54.600Z,27.77
2023-04-16T13:35:56.164Z,31.33
2023-04-16T13:36:58.681Z,27.98
2023-04-16T13:38:00.367Z,27.23
2023-04-16T13:39:04.666Z,29.83
2023-04-16T13:40:07.915Z,26.50
2023-04-16T13:41:10.655Z,28.83
2023-04-16T13:42:12.320Z,29.23
2023-04-16T13:43:19.074Z,27.92
2023-04-16T13:44:21.798Z,29.58
2023-04-16T13:45:23.459Z,28.42
2023-04-16T13:46:27.077Z,29.73
2023-04-16T13:47:35.060Z,24.70
2023-04-16T13:48:38.426Z,28.98
2023-04-16T13:49:47.856Z,27.77
2023-04-16T13:50:50.676Z,28.17
2023-04-16T13:51:53.426Z,27.77
2023-04-16T13:52:55.311Z,29.33
2023-04-16T13:53:57.748Z,34.40
2023-04-16T13:55:00.265Z,36.22
2023-04-16T13:56:03.840Z,36.88
2023-04-16T13:57:09.618Z,40.03
2023-04-16T13:58:22.486Z,36.97
2023-04-16T13:59:24.242Z,39.38
2023-04-16T14:00:27.256Z,38.03
2023-04-16T14:01:40.578Z,40.88
2023-04-16T14:02:42.872Z,39.67
2023-04-16T14:03:45.822Z,40.35
2023-04-16T14:04:47.570Z,39.05
2023-04-16T14:05:50.042Z,35.20
2023-04-16T14:06:51.643Z,32.90
2023-04-16T14:07:54.153Z,34.78
2023-04-16T14:08:55.736Z,33.25
2023-04-16T14:10:05.861Z,29.83
2023-04-16T14:11:17.519Z,31.30
2023-04-16T14:12:19.101Z,29.77
2023-04-16T14:15:09.885Z,28.70
2023-04-16T14:16:12.798Z,27.65
2023-04-16T14:17:14.400Z,27.35
2023-04-16T14:18:17.134Z,28.60
2023-04-16T14:19:18.758Z,30.02
2023-04-16T14:20:21.552Z,31.05
2023-04-16T14:21:23.137Z,36.92
2023-04-16T14:22:25.885Z,31.67
2023-04-16T14:23:28.492Z,31.00
2023-04-16T14:24:30.405Z,31.77
2023-04-16T14:25:33.122Z,36.78
2023-04-16T14:26:35.721Z,37.15
2023-04-16T14:27:38.291Z,38.13
2023-04-16T14:28:42.068Z,42.33
2023-04-16T14:29:46.939Z,40.97
2023-04-16T14:30:48.418Z,39.42
2023-04-16T14:31:51.153Z,40.08
2023-04-16T14:32:54.312Z,40.08
2023-04-16T14:33:55.906Z,41.63
2023-04-16T14:35:01.469Z,37.58
2023-04-16T14:36:04.485Z,44.90
2023-04-16T14:37:06.513Z,43.53
2023-04-16T14:38:14.169Z,46.25
2023-04-16T14:39:16.160Z,41.45
2023-04-16T14:40:19.148Z,47.08
2023-04-16T14:41:20.954Z,40.95
2023-04-16T14:42:23.476Z,42.10
2023-04-16T14:43:26.130Z,50.90
2023-04-16T14:44:27.790Z,45.42
2023-04-16T14:45:32.488Z,45.78
2023-04-16T14:46:34.049Z,44.63
2023-04-16T14:47:38.155Z,46.30
2023-04-16T14:48:40.038Z,49.20
2023-04-16T14:49:42.793Z,49.55
2023-04-16T14:50:45.777Z,44.97
2023-04-16T14:51:47.416Z,45.20
2023-04-16T14:52:52.378Z,48.55
2023-04-16T14:53:54.975Z,48.72
2023-04-16T14:55:03.476Z,50.25
2023-04-16T14:56:05.956Z,51.33
2023-04-16T14:57:08.752Z,51.50
2023-04-16T14:58:11.923Z,55.25
2023-04-16T14:59:13.646Z,51.53
2023-04-16T15:00:18.732Z,42.72
2023-04-16T15:01:22.820Z,41.35
2023-04-16T15:02:26.122Z,43.88
2023-04-16T15:03:28.134Z,42.20
2023-04-16T15:04:31.524Z,47.53
2023-04-16T15:05:33.444Z,38.30
2023-04-16T15:06:36.502Z,38.70
2023-04-16T15:07:39.070Z,40.67
2023-04-16T15:08:40.767Z,36.88
2023-04-16T15:09:43.350Z,35.88
2023-04-16T15:10:46.085Z,33.63
2023-04-16T15:11:47.556Z,35.40
2023-04-16T15:12:52.636Z,33.65
2023-04-16T15:13:54.522Z,32.92
2023-04-16T15:15:03.066Z,33.15
2023-04-16T15:16:05.411Z,34.13
2023-04-16T15:17:09.301Z,34.97
2023-04-16T15:18:14.562Z,35.85
2023-04-16T15:19:17.666Z,32.17
2023-04-16T15:20:19.254Z,33.80
2023-04-16T15:21:22.436Z,34.97
2023-04-16T15:22:25.103Z,33.90
2023-04-16T15:23:26.741Z,31.10
2023-04-16T15:24:29.293Z,34.25
2023-04-16T15:25:30.939Z,38.58
2023-04-16T15:26:33.457Z,31.02
2023-04-16T15:27:35.033Z,31.85
2023-04-16T15:28:37.566Z,33.53
2023-04-16T15:29:39.139Z,35.88
2023-04-16T15:30:45.500Z,35.38
2023-04-16T15:31:48.816Z,31.60
2023-04-16T15:32:57.546Z,31.77
2023-04-16T15:34:00.990Z,32.85
2023-04-16T15:35:04.952Z,31.33
2023-04-16T15:36:07.990Z,32.08
2023-04-16T15:37:10.801Z,28.45
2023-04-16T15:38:12.361Z,32.85
2023-04-16T15:39:15.029Z,29.35
2023-04-16T15:40:18.810Z,28.20
2023-04-16T15:41:21.698Z,29.15
2023-04-16T15:42:47.492Z,29.90
2023-04-16T15:43:49.930Z,28.98
2023-04-16T15:44:51.522Z,34.03
2023-04-16T15:45:54.128Z,32.53
2023-04-16T15:46:56.563Z,26.40
2023-04-16T15:48:05.331Z,29.10
2023-04-16T15:49:08.039Z,29.95
2023-04-16T15:50:09.946Z,32.15
2023-04-16T15:51:12.655Z,31.63
2023-04-16T15:52:14.544Z,30.10
2023-04-16T15:53:17.195Z,31.08
2023-04-16T15:54:19.000Z,28.08
2023-04-16T15:55:21.693Z,28.08
2023-04-16T15:56:23.321Z,28.95
2023-04-16T15:57:26.094Z,26.15
2023-04-16T15:58:27.797Z,26.75
2023-04-16T15:59:30.350Z,25.08
2023-04-16T16:00:32.030Z,26.35
2023-04-16T16:01:37.437Z,26.40
2023-04-16T16:02:39.519Z,24.15
2023-04-16T16:03:43.545Z,23.95
2023-04-16T16:04:46.104Z,24.00
2023-04-16T16:05:48.856Z,23.65
2023-04-16T16:06:51.720Z,22.67
2023-04-16T16:07:54.271Z,23.55
2023-04-16T16:08:55.977Z,21.88
2023-04-16T16:09:58.467Z,21.58